Time;durP1;ratioP1;P1;durP2;ratioP2;P2;SDS_P1;SDS_P2;PMS_P1;PMS_P2;Temp;Humidity;BMP_temperature;BMP_pressure;BME280_temperature;BME280_humidity;BME280_pressure;Samples;Min_cycle;Max_cycle;Signal;HPM_P1;HPM_P2
2023/04/26 00:01:05;;;;;;;5.60;2.50;;;;;;;10.75;62.39;98703.46;78031;1300;3026618;-60
2023/04/26 00:03:32;;;;;;;6.50;2.70;;;;;;;10.68;62.05;98706.30;79210;1300;3011807;-62
2023/04/26 00:06:07;;;;;;;3.80;2.90;;;;;;;10.63;62.27;98706.80;77974;1300;3026148;-59
2023/04/26 00:08:36;;;;;;;7.10;3.20;;;;;;;10.68;62.31;98711.14;78790;1299;3011444;-60
2023/04/26 00:11:03;;;;;;;7.90;3.20;;;;;;;10.69;62.48;98708.63;79304;1297;3013643;-60
2023/04/26 00:13:29;;;;;;;6.70;2.90;;;;;;;10.67;62.76;98716.17;79205;1297;3011931;-61
2023/04/26 00:15:57;;;;;;;5.70;2.90;;;;;;;10.49;63.79;98721.50;78054;1300;3026186;-60
2023/04/26 00:18:24;;;;;;;7.70;3.70;;;;;;;10.41;64.11;98719.98;79273;1300;3013526;-61
2023/04/26 00:20:51;;;;;;;11.80;4.80;;;;;;;10.37;64.41;98718.31;79343;1299;3011485;-60
2023/04/26 00:23:18;;;;;;;15.10;5.40;;;;;;;10.29;64.72;98722.32;78208;1300;3050506;-61
2023/04/26 00:25:45;;;;;;;19.00;6.50;;;;;;;10.27;64.80;98723.73;79260;1296;3012886;-61
2023/04/26 00:28:12;;;;;;;20.80;7.60;;;;;;;10.20;65.09;98723.11;79224;1300;3011620;-61
2023/04/26 00:30:46;;;;;;;39.40;13.90;;;;;;;10.16;65.41;98727.83;77938;1300;3025942;-59
2023/04/26 00:33:13;;;;;;;44.30;18.90;;;;;;;10.19;65.26;98729.87;79339;1300;3013283;-59
2023/04/26 00:35:41;;;;;;;30.40;13.80;;;;;;;10.11;65.55;98735.85;78065;1300;3051679;-60
2023/04/26 00:38:08;;;;;;;20.70;8.90;;;;;;;10.07;65.61;98735.61;79249;1298;3013240;-61
2023/04/26 00:40:35;;;;;;;14.00;6.50;;;;;;;10.03;65.87;98738.02;79255;1300;3012101;-60
2023/04/26 00:43:03;;;;;;;11.90;4.90;;;;;;;9.95;66.51;98747.30;78121;1300;3028157;-60
2023/04/26 00:45:29;;;;;;;6.70;3.90;;;;;;;9.87;67.17;98742.61;79331;1301;3013262;-58
2023/04/26 00:47:57;;;;;;;8.50;3.60;;;;;;;9.90;67.18;98740.48;79307;1301;3011901;-60
2023/04/26 00:50:25;;;;;;;12.90;3.90;;;;;;;9.83;67.53;98746.90;78096;1300;3051755;-59
2023/04/26 00:52:52;;;;;;;7.70;3.90;;;;;;;9.71;68.05;98751.55;79156;1298;3020613;-59
2023/04/26 00:55:20;;;;;;;9.30;4.00;;;;;;;9.47;69.22;98759.34;79330;1297;3011929;-61
2023/04/26 00:57:48;;;;;;;8.30;4.20;;;;;;;9.52;68.95;98749.88;78084;1300;3050017;-59
2023/04/26 01:00:15;;;;;;;8.00;4.50;;;;;;;9.43;69.26;98752.74;79230;1300;3018527;-60
2023/04/26 01:02:42;;;;;;;9.20;3.90;;;;;;;9.34;69.36;98749.99;79288;1298;3011738;-59
2023/04/26 01:05:10;;;;;;;8.20;4.30;;;;;;;9.24;69.69;98754.14;78011;1301;3052053;-58
2023/04/26 01:07:37;;;;;;;5.80;3.70;;;;;;;9.19;70.06;98746.27;79231;1301;3018654;-60
2023/04/26 01:10:05;;;;;;;10.30;4.80;;;;;;;9.12;70.14;98752.88;79269;1298;3011615;-61
2023/04/26 01:12:33;;;;;;;10.60;4.40;;;;;;;8.98;70.89;98756.07;78025;1300;3050624;-59
2023/04/26 01:15:01;;;;;;;7.40;4.40;;;;;;;8.94;71.06;98745.50;79238;1301;3012904;-60
2023/04/26 01:17:27;;;;;;;6.40;4.10;;;;;;;9.00;70.73;98747.87;79290;1300;3012850;-60
2023/04/26 01:19:58;;;;;;;8.50;4.00;;;;;;;8.97;70.71;98747.73;78061;1298;3051626;-58
2023/04/26 01:22:24;;;;;;;5.40;3.80;;;;;;;8.86;70.99;98747.23;79291;1300;3012988;-62
2023/04/26 01:24:51;;;;;;;10.00;4.60;;;;;;;8.77;71.63;98748.35;79350;1296;3011805;-59
2023/04/26 01:27:19;;;;;;;7.30;4.30;;;;;;;8.82;71.51;98745.42;77977;1300;3028266;-59
2023/04/26 01:29:47;;;;;;;7.20;3.90;;;;;;;8.87;71.29;98745.76;79285;1299;3013711;-59
2023/04/26 01:32:13;;;;;;;6.60;3.60;;;;;;;8.80;71.60;98747.11;79274;1300;3013174;-61
2023/04/26 01:34:41;;;;;;;10.20;4.50;;;;;;;8.75;72.04;98740.46;78130;1296;3051193;-58
2023/04/26 01:37:10;;;;;;;6.40;2.70;;;;;;;8.74;72.15;98741.00;79283;1300;3013077;-61
2023/04/26 01:39:37;;;;;;;7.30;3.30;;;;;;;9.21;71.06;98740.06;79218;1297;3013480;-60
2023/04/26 01:42:05;;;;;;;7.20;3.50;;;;;;;9.90;68.61;98736.30;78003;1300;3050790;-59
2023/04/26 01:44:32;;;;;;;7.60;4.00;;;;;;;10.04;67.51;98730.58;79504;1299;3013292;-61
2023/04/26 01:47:03;;;;;;;8.60;4.30;;;;;;;9.94;67.74;98731.96;78976;1297;3013062;-60
2023/04/26 01:49:31;;;;;;;10.10;4.10;;;;;;;9.82;68.07;98736.30;79603;1297;3018529;-60
2023/04/26 01:51:58;;;;;;;11.90;4.30;;;;;;;9.68;68.69;98737.73;79465;1297;3011689;-59
2023/04/26 01:54:26;;;;;;;8.80;4.40;;;;;;;9.61;69.07;98741.60;78202;1297;3049736;-59
2023/04/26 01:56:52;;;;;;;8.40;4.60;;;;;;;9.61;69.21;98737.39;79707;1295;3019004;-59
2023/04/26 01:59:20;;;;;;;14.10;6.40;;;;;;;9.55;69.48;98739.52;79523;1297;3012735;-59
2023/04/26 02:01:47;;;;;;;9.40;5.60;;;;;;;9.45;69.80;98740.38;78297;1297;3028040;-60
2023/04/26 02:04:14;;;;;;;12.00;5.80;;;;;;;9.27;71.05;98736.55;79594;1297;3012951;-61
2023/04/26 02:06:41;;;;;;;22.00;8.40;;;;;;;9.26;70.81;98736.58;79590;1295;3013733;-59
2023/04/26 02:09:09;;;;;;;22.70;8.30;;;;;;;9.34;70.31;98736.21;78367;1297;3028706;-60
2023/04/26 02:11:39;;;;;;;18.90;7.00;;;;;;;9.35;70.18;98736.17;79457;1299;3013980;-60
2023/04/26 02:14:07;;;;;;;53.40;16.50;;;;;;;9.24;71.06;98735.16;78157;1299;3028482;-61
2023/04/26 02:16:34;;;;;;;24.40;7.80;;;;;;;9.29;70.57;98730.42;79448;1300;3013531;-59
2023/04/26 02:19:02;;;;;;;17.00;6.50;;;;;;;9.23;71.16;98730.80;79604;1300;3011560;-59
2023/04/26 02:21:30;;;;;;;11.90;5.20;;;;;;;9.33;70.25;98729.27;78628;1294;3051422;-62
2023/04/26 02:23:56;;;;;;;12.70;4.70;;;;;;;9.30;70.70;98731.77;79670;1297;3012615;-59
2023/04/26 02:26:23;;;;;;;11.50;5.20;;;;;;;9.32;70.54;98736.17;79412;1296;3011989;-60
2023/04/26 02:28:51;;;;;;;8.40;4.80;;;;;;;9.37;70.27;98737.20;78259;1298;3027915;-60
2023/04/26 02:31:18;;;;;;;7.40;4.20;;;;;;;9.35;70.69;98736.69;79450;1297;3013221;-61
2023/04/26 02:33:45;;;;;;;8.20;4.60;;;;;;;9.35;70.67;98738.73;79470;1297;3011578;-59
2023/04/26 02:36:12;;;;;;;7.00;2.60;;;;;;;9.30;71.28;98743.65;78443;1292;3050680;-60
2023/04/26 02:38:40;;;;;;;4.80;2.60;;;;;;;9.87;70.15;98739.08;79574;1295;3018564;-62
2023/04/26 02:41:08;;;;;;;8.00;2.90;;;;;;;10.54;68.20;98735.28;79482;1294;3011262;-57
2023/04/26 02:43:36;;;;;;;6.60;3.60;;;;;;;10.77;67.43;98737.14;78423;1296;3050243;-60
2023/04/26 02:46:06;;;;;;;6.50;3.70;;;;;;;10.61;67.88;98740.91;79604;1296;3013484;-58
2023/04/26 02:48:35;;;;;;;7.70;3.60;;;;;;;10.44;67.95;98742.45;78975;1296;3011884;-59
2023/04/26 02:51:02;;;;;;;7.20;4.20;;;;;;;10.19;68.94;98740.02;79511;1297;3013214;-61
2023/04/26 02:53:29;;;;;;;9.20;4.20;;;;;;;9.98;69.94;98741.30;79538;1297;3012792;-61
2023/04/26 02:55:59;;;;;;;8.10;3.90;;;;;;;9.92;70.35;98741.57;78698;1297;3025815;-59
2023/04/26 02:58:27;;;;;;;9.50;4.40;;;;;;;9.84;70.94;98741.41;79543;1297;3013281;-62
2023/04/26 03:00:57;;;;;;;9.90;4.00;;;;;;;9.81;71.16;98739.67;78238;1295;3026540;-60
2023/04/26 03:03:24;;;;;;;7.00;4.00;;;;;;;9.78;71.45;98740.59;79682;1296;3013302;-59
2023/04/26 03:05:51;;;;;;;10.60;4.50;;;;;;;9.73;71.92;98738.98;79581;1295;3011493;-61
2023/04/26 03:08:19;;;;;;;8.50;4.50;;;;;;;9.66;72.41;98745.93;78434;1296;3050804;-57
2023/04/26 03:10:46;;;;;;;9.70;4.50;;;;;;;9.64;72.74;98746.61;79543;1294;3013600;-58
2023/04/26 03:13:12;;;;;;;8.10;4.40;;;;;;;9.62;72.68;98743.39;79425;1297;3011792;-58
2023/04/26 03:15:45;;;;;;;7.20;4.40;;;;;;;9.60;72.87;98745.52;78349;1297;3028853;-56
2023/04/26 03:18:11;;;;;;;7.40;4.40;;;;;;;9.59;72.84;98748.31;79491;1295;3011894;-59
2023/04/26 03:20:41;;;;;;;6.00;2.50;;;;;;;9.60;72.77;98747.05;78448;1308;3053422;-58
2023/04/26 03:23:07;;;;;;;8.00;2.80;;;;;;;10.14;71.57;98747.59;79460;1298;3013767;-61
2023/04/26 03:25:35;;;;;;;6.80;3.60;;;;;;;10.66;69.33;98753.02;79531;1296;3011930;-60
2023/04/26 03:28:04;;;;;;;6.10;3.70;;;;;;;10.69;68.92;98756.44;78235;1299;3049246;-61
2023/04/26 03:30:30;;;;;;;8.70;3.60;;;;;;;10.65;69.23;98758.85;79392;1294;3013132;-62
2023/04/26 03:32:57;;;;;;;9.20;4.00;;;;;;;10.61;69.60;98762.13;79460;1297;3011698;-59
2023/04/26 03:35:25;;;;;;;10.30;4.80;;;;;;;10.39;70.37;98757.71;78075;1299;3053462;-60
2023/04/26 03:37:51;;;;;;;13.20;4.50;;;;;;;10.31;70.89;98756.55;79641;1296;3011556;-57
2023/04/26 03:40:18;;;;;;;11.00;4.80;;;;;;;10.24;71.34;98760.45;79558;1299;3011550;-59
2023/04/26 03:42:46;;;;;;;9.20;5.30;;;;;;;10.18;71.96;98757.25;78261;1298;3026160;-58
2023/04/26 03:45:13;;;;;;;15.90;5.60;;;;;;;10.17;72.47;98761.84;79362;1296;3013463;-57
2023/04/26 03:47:39;;;;;;;11.40;6.20;;;;;;;10.13;72.72;98764.61;79660;1298;3011957;-58
2023/04/26 03:50:07;;;;;;;22.00;8.00;;;;;;;10.03;73.42;98768.58;78285;1300;3026093;-57
2023/04/26 03:52:34;;;;;;;15.20;7.40;;;;;;;10.07;73.78;98769.18;79878;1295;3013672;-57
2023/04/26 03:55:02;;;;;;;12.40;4.30;;;;;;;10.10;74.38;98772.53;79571;1299;3011676;-58
2023/04/26 03:57:31;;;;;;;14.70;5.60;;;;;;;10.66;73.29;98773.99;78252;1294;3048793;-58
2023/04/26 03:59:57;;;;;;;12.70;6.50;;;;;;;11.31;71.04;98776.45;79618;1300;3013497;-57
2023/04/26 04:02:24;;;;;;;17.30;7.80;;;;;;;11.55;69.92;98774.32;79335;1300;3011931;-59
2023/04/26 04:04:52;;;;;;;16.40;7.40;;;;;;;11.55;69.35;98775.02;78211;1300;3028598;-59
2023/04/26 04:07:19;;;;;;;18.20;7.20;;;;;;;11.47;69.37;98776.71;79341;1298;3018691;-57
2023/04/26 04:09:45;;;;;;;15.10;7.20;;;;;;;11.43;69.42;98781.55;79460;1299;3011813;-59
2023/04/26 04:12:14;;;;;;;19.50;7.30;;;;;;;11.39;69.62;98779.16;78221;1300;3050452;-57
2023/04/26 04:14:44;;;;;;;21.90;7.40;;;;;;;11.39;69.47;98781.86;79467;1298;3013020;-59
2023/04/26 04:17:12;;;;;;;17.40;7.20;;;;;;;11.37;69.49;98780.73;78078;1299;3026235;-59
2023/04/26 04:19:39;;;;;;;15.50;7.20;;;;;;;11.31;69.34;98783.32;80447;1299;3021367;-57
2023/04/26 04:22:06;;;;;;;23.70;7.60;;;;;;;11.33;69.15;98780.70;79427;1298;3013503;-59
2023/04/26 04:24:35;;;;;;;17.40;7.40;;;;;;;11.33;69.48;98778.08;78394;1293;3052441;-63
2023/04/26 04:27:02;;;;;;;18.50;8.50;;;;;;;11.33;69.72;98774.18;79744;1294;3013675;-58
2023/04/26 04:29:30;;;;;;;18.90;8.00;;;;;;;11.39;69.46;98773.45;79858;1293;3011559;-59
2023/04/26 04:31:57;;;;;;;17.40;7.30;;;;;;;11.42;69.62;98771.24;78504;1308;3050358;-58
2023/04/26 04:34:25;;;;;;;24.70;8.40;;;;;;;11.44;69.60;98773.09;79582;1306;3013520;-58
2023/04/26 04:36:53;;;;;;;26.70;8.20;;;;;;;11.47;69.83;98774.42;79681;1297;3013314;-58
2023/04/26 04:39:21;;;;;;;19.80;7.90;;;;;;;11.48;69.08;98771.38;78375;1295;3051892;-58
2023/04/26 04:41:47;;;;;;;19.10;8.60;;;;;;;11.51;69.22;98769.34;79582;1298;3011667;-59
2023/04/26 04:44:15;;;;;;;23.20;8.40;;;;;;;11.57;68.85;98770.09;79673;1296;3012230;-60
2023/04/26 04:46:43;;;;;;;14.60;6.60;;;;;;;11.59;66.57;98771.40;78285;1297;3050046;-59
2023/04/26 04:49:11;;;;;;;17.40;7.30;;;;;;;11.71;66.34;98768.39;79458;1298;3011401;-59
2023/04/26 04:51:38;;;;;;;22.50;7.60;;;;;;;11.88;66.79;98765.70;79520;1297;3011741;-61
2023/04/26 04:54:13;;;;;;;24.00;7.50;;;;;;;11.99;66.18;98765.60;78563;1294;3053899;-59
2023/04/26 04:56:43;;;;;;;15.50;6.50;;;;;;;12.08;65.47;98768.17;79080;1293;3011489;-56
2023/04/26 04:59:10;;;;;;;23.80;8.00;;;;;;;12.18;65.36;98770.08;79643;1292;3013223;-58
2023/04/26 05:01:37;;;;;;;19.90;7.80;;;;;;;12.24;65.09;98768.34;79439;1296;3012569;-58
2023/04/26 05:04:09;;;;;;;13.70;6.20;;;;;;;12.32;64.57;98773.01;78318;1297;3050702;-57
2023/04/26 05:06:35;;;;;;;12.00;6.20;;;;;;;12.43;63.46;98768.48;79426;1297;3013366;-59
2023/04/26 05:09:04;;;;;;;15.40;6.10;;;;;;;12.52;62.98;98768.59;79445;1297;3013087;-60
2023/04/26 05:11:33;;;;;;;15.50;5.90;;;;;;;12.58;62.24;98764.98;78323;1293;3051334;-59
2023/04/26 05:14:00;;;;;;;14.10;6.20;;;;;;;12.66;62.29;98768.56;79442;1292;3013291;-59
2023/04/26 05:16:27;;;;;;;15.60;6.00;;;;;;;12.73;61.95;98770.61;79376;1293;3013190;-58
2023/04/26 05:18:55;;;;;;;16.20;6.70;;;;;;;12.80;61.62;98772.54;78274;1297;3051137;-59
2023/04/26 05:21:22;;;;;;;14.10;6.00;;;;;;;12.85;61.52;98775.80;79501;1299;3013335;-59
2023/04/26 05:23:49;;;;;;;13.80;5.80;;;;;;;12.86;59.91;98778.73;79525;1293;3012834;-58
2023/04/26 05:26:17;;;;;;;14.60;5.20;;;;;;;12.87;59.57;98779.50;78179;1298;3052292;-59
2023/04/26 05:28:43;;;;;;;14.70;5.60;;;;;;;12.91;59.76;98778.85;79597;1293;3013036;-59
2023/04/26 05:31:35;;;;;;;14.60;5.20;;;;;;;13.03;60.12;98778.98;78185;1297;3053620;-59
2023/04/26 05:34:36;;;;;;;13.90;5.50;;;;;;;13.12;60.16;98781.20;78222;1305;3050588;-59
2023/04/26 05:37:02;;;;;;;11.50;5.80;;;;;;;13.20;60.34;98779.81;79574;1298;3016225;-58
2023/04/26 05:39:30;;;;;;;14.70;5.20;;;;;;;13.31;60.42;98774.77;79424;1292;3013246;-59
2023/04/26 05:41:58;;;;;;;11.90;5.20;;;;;;;13.45;60.57;98776.41;78333;1298;3051845;-59
2023/04/26 05:44:25;;;;;;;10.10;4.50;;;;;;;13.51;59.88;98772.00;79537;1294;3018553;-59
2023/04/26 05:46:52;;;;;;;10.90;4.30;;;;;;;13.57;59.53;98769.42;79560;1297;3012079;-58
2023/04/26 05:49:20;;;;;;;9.40;4.20;;;;;;;13.61;59.04;98774.55;78209;1298;3028829;-60
2023/04/26 05:51:47;;;;;;;12.70;4.90;;;;;;;13.64;59.43;98772.38;79531;1297;3014424;-61
2023/04/26 05:54:13;;;;;;;8.80;4.50;;;;;;;13.70;59.96;98770.62;79454;1295;3012920;-59
2023/04/26 05:56:41;;;;;;;12.90;4.60;;;;;;;13.81;59.73;98768.11;78345;1298;3051514;-59
2023/04/26 05:59:09;;;;;;;11.50;4.60;;;;;;;13.87;59.36;98766.16;79500;1292;3013347;-59
2023/04/26 06:01:36;;;;;;;11.30;4.70;;;;;;;13.97;59.61;98763.41;79428;1298;3011694;-58
2023/04/26 06:04:04;;;;;;;7.30;4.40;;;;;;;14.06;58.60;98762.64;78212;1296;3049636;-60
2023/04/26 06:06:36;;;;;;;9.10;3.90;;;;;;;14.14;57.68;98766.50;79535;1298;3011575;-59
2023/04/26 06:09:04;;;;;;;10.30;4.10;;;;;;;14.20;57.38;98770.56;78266;1298;3052760;-59
2023/04/26 06:11:31;;;;;;;12.40;5.10;;;;;;;14.21;56.91;98764.70;79396;1298;3013182;-60
2023/04/26 06:13:58;;;;;;;9.80;4.60;;;;;;;14.21;57.11;98772.66;79442;1292;3013356;-59
2023/04/26 06:16:26;;;;;;;10.10;3.70;;;;;;;14.08;56.16;98772.85;78207;1294;3048842;-60
2023/04/26 06:18:52;;;;;;;8.10;2.80;;;;;;;14.05;55.71;98781.71;79463;1295;3012822;-58
2023/04/26 06:21:19;;;;;;;12.90;3.40;;;;;;;14.10;55.83;98780.79;79419;1293;3013467;-59
2023/04/26 06:23:46;;;;;;;7.20;3.30;;;;;;;14.16;56.69;98786.63;78262;1297;3028145;-59
2023/04/26 06:26:13;;;;;;;8.30;3.20;;;;;;;14.21;57.09;98785.45;79654;1298;3020907;-60
2023/04/26 06:28:40;;;;;;;5.70;3.30;;;;;;;14.35;57.28;98783.61;79566;1297;3013419;-59
2023/04/26 06:31:07;;;;;;;9.60;3.40;;;;;;;14.44;58.63;98784.33;78224;1296;3028157;-60
2023/04/26 06:33:35;;;;;;;15.60;5.60;;;;;;;14.55;58.79;98783.09;79639;1298;3013164;-59
2023/04/26 06:36:02;;;;;;;8.40;4.00;;;;;;;14.48;60.39;98782.76;77824;1298;3013731;-58
2023/04/26 06:38:30;;;;;;;10.50;4.40;;;;;;;14.56;60.35;98785.83;78350;1298;3053079;-58
2023/04/26 06:40:57;;;;;;;8.40;4.20;;;;;;;14.60;60.33;98784.58;79594;1298;3013246;-58
2023/04/26 06:43:24;;;;;;;7.80;3.70;;;;;;;14.73;60.34;98788.00;79504;1292;3013502;-59
2023/04/26 06:46:00;;;;;;;11.40;4.60;;;;;;;14.80;60.67;98787.81;78372;1297;3050544;-59
2023/04/26 06:48:27;;;;;;;8.30;3.70;;;;;;;14.83;61.14;98792.61;79687;1294;3012882;-58
2023/04/26 06:50:53;;;;;;;9.30;3.20;;;;;;;14.84;61.45;98790.73;79550;1293;3013410;-59
2023/04/26 06:53:21;;;;;;;8.80;3.30;;;;;;;14.99;61.24;98792.04;78159;1298;3028515;-57
2023/04/26 06:55:48;;;;;;;8.60;3.10;;;;;;;15.05;61.70;98790.80;79505;1297;3013174;-58
2023/04/26 06:58:15;;;;;;;6.30;3.50;;;;;;;15.17;61.84;98788.01;79396;1292;3012631;-59
2023/04/26 07:00:42;;;;;;;5.40;2.80;;;;;;;15.24;61.97;98786.80;78074;1296;3028762;-60
2023/04/26 07:03:09;;;;;;;6.60;3.30;;;;;;;15.31;61.37;98791.02;79507;1292;3013716;-60
2023/04/26 07:05:36;;;;;;;5.20;2.80;;;;;;;15.16;61.73;98800.83;79442;1297;3011720;-59
2023/04/26 07:08:04;;;;;;;8.80;2.80;;;;;;;15.19;62.20;98804.05;78140;1300;3025874;-58
2023/04/26 07:10:31;;;;;;;5.10;2.90;;;;;;;15.35;62.00;98801.52;79728;1293;3014482;-56
2023/04/26 07:12:58;;;;;;;8.10;2.80;;;;;;;15.50;61.60;98802.46;79542;1295;3011641;-59
2023/04/26 07:15:26;;;;;;;4.40;2.80;;;;;;;15.60;60.86;98802.44;78259;1298;3050132;-58
2023/04/26 07:17:53;;;;;;;5.10;2.30;;;;;;;15.65;59.90;98804.41;79464;1292;3013215;-59
2023/04/26 07:20:21;;;;;;;3.90;2.00;;;;;;;15.67;59.79;98803.91;79423;1292;3011561;-58
2023/04/26 07:22:50;;;;;;;7.70;2.10;;;;;;;15.68;59.65;98800.15;78365;1298;3052164;-60
2023/04/26 07:25:16;;;;;;;3.00;2.10;;;;;;;15.58;59.38;98805.93;79535;1296;3014848;-59
2023/04/26 07:27:43;;;;;;;5.10;2.00;;;;;;;15.61;58.64;98814.33;79482;1293;3012338;-58
2023/04/26 07:30:11;;;;;;;3.00;1.90;;;;;;;15.59;58.29;98810.65;78322;1292;3049194;-58
2023/04/26 07:32:38;;;;;;;4.30;1.70;;;;;;;15.60;58.07;98809.64;79515;1295;3013841;-59
2023/04/26 07:35:13;;;;;;;7.00;1.90;;;;;;;15.66;58.02;98812.90;79614;1295;3011662;-59
2023/04/26 07:37:43;;;;;;;6.10;1.90;;;;;;;15.78;57.97;98813.71;78289;1297;3053082;-59
2023/04/26 07:40:10;;;;;;;3.40;1.80;;;;;;;15.79;56.88;98818.67;79743;1293;3013033;-58
2023/04/26 07:42:37;;;;;;;2.40;1.60;;;;;;;15.85;56.37;98819.80;79469;1294;3011768;-59
2023/04/26 07:45:05;;;;;;;4.50;1.80;;;;;;;15.49;55.27;98822.66;78192;1296;3049068;-57
2023/04/26 07:47:32;;;;;;;2.90;1.70;;;;;;;15.55;54.91;98818.92;79584;1294;3013707;-59
2023/04/26 07:49:59;;;;;;;5.70;1.70;;;;;;;15.75;54.35;98820.14;79539;1293;3013122;-59
2023/04/26 07:52:27;;;;;;;3.70;1.90;;;;;;;15.84;54.42;98821.79;78285;1297;3052299;-56
2023/04/26 07:54:53;;;;;;;3.80;1.90;;;;;;;15.95;54.06;98817.83;79659;1293;3013742;-59
2023/04/26 07:57:19;;;;;;;5.00;2.00;;;;;;;16.04;53.62;98817.13;79560;1294;3012746;-57
2023/04/26 07:59:47;;;;;;;6.00;1.90;;;;;;;16.20;52.70;98810.49;78221;1297;3028909;-59
2023/04/26 08:02:14;;;;;;;3.30;1.60;;;;;;;16.25;52.57;98813.57;79443;1297;3020787;-59
2023/04/26 08:04:47;;;;;;;7.90;1.90;;;;;;;16.32;52.82;98806.74;79508;1294;3013061;-58
2023/04/26 08:07:15;;;;;;;3.90;1.80;;;;;;;16.37;52.96;98802.39;78220;1292;3050893;-58
2023/04/26 08:09:42;;;;;;;3.70;2.00;;;;;;;16.52;53.28;98801.62;79478;1297;3012986;-59
2023/04/26 08:12:09;;;;;;;3.70;1.90;;;;;;;16.62;52.64;98803.30;79562;1292;3013506;-60
2023/04/26 08:14:37;;;;;;;3.00;1.60;;;;;;;16.69;52.92;98799.66;78207;1297;3049662;-59
2023/04/26 08:17:04;;;;;;;2.80;1.60;;;;;;;16.70;52.09;98810.17;79712;1297;3013610;-60
2023/04/26 08:19:32;;;;;;;5.10;2.00;;;;;;;16.78;52.59;98813.32;79468;1294;3011839;-58
2023/04/26 08:22:00;;;;;;;4.70;1.70;;;;;;;16.81;52.33;98810.15;78277;1297;3053300;-57
2023/04/26 08:24:27;;;;;;;5.20;1.60;;;;;;;16.91;51.38;98804.32;79454;1292;3012873;-58
2023/04/26 08:26:54;;;;;;;6.20;1.50;;;;;;;17.01;50.39;98813.23;79559;1293;3012191;-59
2023/04/26 08:29:22;;;;;;;2.00;1.50;;;;;;;17.05;48.95;98808.06;78390;1297;3026524;-58
2023/04/26 08:31:48;;;;;;;6.00;1.70;;;;;;;17.14;49.77;98802.41;79598;1293;3021106;-58
2023/04/26 08:34:15;;;;;;;5.40;1.80;;;;;;;17.12;49.72;98801.89;79528;1297;3011720;-58
2023/04/26 08:36:42;;;;;;;3.60;2.00;;;;;;;17.28;49.74;98800.14;78230;1296;3028975;-57
2023/04/26 08:39:11;;;;;;;4.60;1.80;;;;;;;17.43;49.34;98793.17;79603;1297;3018712;-59
2023/04/26 08:41:42;;;;;;;5.60;1.80;;;;;;;17.52;50.13;98794.24;79398;1294;3013663;-59
2023/04/26 08:44:10;;;;;;;4.40;1.90;;;;;;;17.64;50.16;98791.50;78568;1292;3049690;-62
2023/04/26 08:46:50;;;;;;;2.40;1.80;;;;;;;17.75;50.17;98790.71;79533;1297;3013565;-59
2023/04/26 08:49:23;;;;;;;6.20;1.10;;;;;;;17.86;47.47;98785.53;78300;1297;3053004;-60
2023/04/26 08:51:50;;;;;;;3.60;1.60;;;;;;;17.99;45.89;98780.30;79451;1297;3011922;-63
2023/04/26 08:54:18;;;;;;;2.30;1.40;;;;;;;18.17;45.74;98781.20;78337;1293;3068388;-64
2023/04/26 08:56:45;;;;;;;2.60;1.10;;;;;;;18.19;44.95;98774.36;79539;1294;3013728;-62
2023/04/26 08:59:12;;;;;;;5.10;1.40;;;;;;;18.21;44.32;98775.04;79427;1293;3011352;-62
2023/04/26 09:01:40;;;;;;;2.80;1.30;;;;;;;18.05;41.32;98780.03;78245;1297;3028297;-61
2023/04/26 09:04:06;;;;;;;4.10;1.30;;;;;;;18.08;40.16;98772.65;79593;1294;3011805;-61
2023/04/26 09:06:33;;;;;;;3.80;1.40;;;;;;;18.18;40.67;98767.38;79461;1298;3011726;-61
2023/04/26 09:09:03;;;;;;;2.40;1.10;;;;;;;18.29;40.80;98766.05;78189;1295;3028596;-62
2023/04/26 09:11:30;;;;;;;4.40;1.20;;;;;;;18.42;40.14;98758.70;79440;1295;3012868;-60
2023/04/26 09:13:57;;;;;;;3.20;0.80;;;;;;;18.43;38.09;98758.90;79445;1293;3013080;-62
2023/04/26 09:16:35;;;;;;;3.20;0.80;;;;;;;18.55;38.10;98762.67;78451;1294;3053169;-61
2023/04/26 09:19:03;;;;;;;4.20;0.90;;;;;;;18.65;38.87;98757.40;78183;1297;3051189;-60
2023/04/26 09:21:30;;;;;;;3.70;1.20;;;;;;;18.36;39.79;98759.10;79504;1297;3013480;-61
2023/04/26 09:23:58;;;;;;;2.90;1.00;;;;;;;18.27;40.57;98759.40;79344;1298;3011932;-61
2023/04/26 09:26:25;;;;;;;5.70;1.10;;;;;;;18.28;40.45;98760.20;78406;1308;3052114;-63
2023/04/26 09:29:17;;;;;;;3.90;1.30;;;;;;;18.36;40.56;98760.27;79520;1297;3018409;-62
2023/04/26 09:31:46;;;;;;;3.00;1.00;;;;;;;18.45;40.69;98754.29;78293;1297;3055412;-62
2023/04/26 09:34:13;;;;;;;4.90;1.00;;;;;;;18.46;40.80;98754.91;79462;1300;3013427;-64
2023/04/26 09:36:52;;;;;;;6.80;0.90;;;;;;;18.51;40.44;98745.56;79467;1294;3011810;-61
2023/04/26 09:39:30;;;;;;;3.90;1.00;;;;;;;18.67;40.49;98747.89;78202;1293;3067469;-62
2023/04/26 09:41:58;;;;;;;1.60;0.90;;;;;;;18.50;40.46;98741.93;78441;1297;3051629;-60
2023/04/26 09:44:25;;;;;;;4.10;1.00;;;;;;;18.77;41.14;98739.80;79502;1294;3013193;-62
2023/04/26 09:47:08;;;;;;;8.30;1.10;;;;;;;19.00;42.26;98740.73;79386;1293;3013132;-61
2023/04/26 09:49:50;;;;;;;3.60;1.40;;;;;;;19.20;41.41;98743.96;78230;1294;3049574;-62
2023/04/26 09:52:18;;;;;;;2.50;0.90;;;;;;;19.38;40.15;98735.23;78146;1297;3053027;-61
2023/04/26 09:54:48;;;;;;;2.70;1.10;;;;;;;19.57;38.12;98736.59;79702;1295;3012767;-65
2023/04/26 09:57:18;;;;;;;3.40;1.00;;;;;;;19.68;36.21;98737.70;79131;1294;3011795;-60
2023/04/26 09:59:46;;;;;;;1.60;0.80;;;;;;;19.72;35.93;98738.30;79558;1295;3014643;-66
2023/04/26 10:02:21;;;;;;;0.80;0.60;;;;;;;19.76;34.65;98737.89;79507;1294;3011749;-62
2023/04/26 10:04:53;;;;;;;2.80;0.80;;;;;;;19.86;34.08;98743.34;78276;1294;3054412;-61
2023/04/26 10:07:21;;;;;;;4.10;0.80;;;;;;;19.85;33.17;98747.55;79555;1297;3013033;-63
2023/04/26 10:09:49;;;;;;;14.40;1.10;;;;;;;19.80;33.31;98739.94;78426;1297;3052217;-61
2023/04/26 10:12:17;;;;;;;3.00;0.60;;;;;;;19.96;33.97;98730.52;79578;1294;3018833;-60
2023/04/26 10:14:45;;;;;;;5.80;0.60;;;;;;;20.00;33.66;98728.82;79833;1293;3011918;-60
2023/04/26 10:17:13;;;;;;;3.50;0.60;;;;;;;20.11;33.69;98727.42;78303;1293;3056040;-61
2023/04/26 10:19:42;;;;;;;2.50;0.60;;;;;;;20.28;34.31;98729.81;79494;1293;3018448;-62
2023/04/26 10:22:22;;;;;;;3.60;0.60;;;;;;;20.15;33.86;98731.80;78998;1294;3013493;-60
2023/04/26 10:24:52;;;;;;;1.70;0.70;;;;;;;20.14;34.36;98732.40;78352;1297;3050875;-61
2023/04/26 10:27:44;;;;;;;2.00;0.60;;;;;;;20.00;35.33;98722.42;79553;1297;3013028;-60
2023/04/26 10:30:12;;;;;;;3.80;0.90;;;;;;;20.20;35.34;98728.02;78199;1294;3068935;-59
2023/04/26 10:32:52;;;;;;;3.00;1.10;;;;;;;20.26;34.86;98731.27;79528;1294;3014569;-62
2023/04/26 10:35:20;;;;;;;3.70;0.90;;;;;;;20.25;35.03;98737.77;78297;1297;3049958;-61
2023/04/26 10:38:02;;;;;;;6.10;1.40;;;;;;;19.93;35.71;98735.95;79533;1294;3014043;-61
2023/04/26 10:40:38;;;;;;;1.90;0.70;;;;;;;20.14;36.35;98735.79;78229;1297;3055745;-61
2023/04/26 10:43:10;;;;;;;2.40;0.80;;;;;;;20.21;36.66;98738.30;78957;1297;3011986;-60
2023/04/26 10:45:37;;;;;;;4.50;0.70;;;;;;;20.12;37.70;98737.00;79554;1297;3014465;-61
2023/04/26 10:48:19;;;;;;;5.30;0.90;;;;;;;20.15;37.66;98746.33;79081;1293;3011667;-62
2023/04/26 10:51:10;;;;;;;4.10;0.80;;;;;;;20.07;37.95;98741.48;78276;1297;3052048;-61
2023/04/26 10:53:45;;;;;;;3.20;0.80;;;;;;;20.15;38.65;98742.09;78294;1297;3056507;-62
2023/04/26 10:56:27;;;;;;;2.70;0.90;;;;;;;20.12;38.92;98741.34;79365;1293;3011833;-61
2023/04/26 10:59:08;;;;;;;6.20;1.20;;;;;;;19.87;39.20;98737.06;78314;1297;3053489;-62
2023/04/26 11:01:36;;;;;;;3.00;0.90;;;;;;;19.99;39.69;98736.36;78353;1297;3049423;-61
2023/04/26 11:04:08;;;;;;;3.30;0.90;;;;;;;20.31;38.67;98732.66;79677;1297;3016052;-61
2023/04/26 11:06:52;;;;;;;2.90;1.10;;;;;;;20.38;38.31;98729.93;78366;1297;3068438;-60
2023/04/26 11:09:40;;;;;;;1.40;0.70;;;;;;;20.43;37.61;98732.73;78224;1297;3052131;-61
2023/04/26 11:12:12;;;;;;;3.50;0.80;;;;;;;20.39;38.14;98732.33;78433;1297;3057565;-61
2023/04/26 11:14:42;;;;;;;7.00;0.90;;;;;;;20.45;37.50;98728.63;79464;1294;3011834;-62
2023/04/26 11:17:11;;;;;;;1.60;0.90;;;;;;;20.71;36.28;98733.60;78279;1294;3052782;-61
2023/04/26 11:19:37;;;;;;;4.00;1.10;;;;;;;20.91;37.01;98729.54;79508;1297;3013525;-61
2023/04/26 11:22:05;;;;;;;4.50;1.70;;;;;;;20.97;38.75;98731.80;79837;1297;3011502;-63
2023/04/26 11:24:37;;;;;;;5.20;1.00;;;;;;;20.64;39.92;98734.22;78271;1294;3069648;-62